createdAt,value
2018-12-27T00:00:11.439Z,100.63
2018-12-27T00:02:39.863Z,90.37
2018-12-27T00:05:08.268Z,94.23
2018-12-27T00:07:36.698Z,86.43
2018-12-27T00:10:05.848Z,101.60
2018-12-27T00:12:34.287Z,94.53
2018-12-27T00:15:02.772Z,88.90
2018-12-27T00:17:31.222Z,103.10
2018-12-27T00:19:59.648Z,94.00
2018-12-27T00:22:28.097Z,111.80
2018-12-27T00:24:56.503Z,122.60
2018-12-27T00:27:25.176Z,102.43
2018-12-27T00:29:53.853Z,111.63
2018-12-27T00:32:22.447Z,105.57
2018-12-27T00:34:51.021Z,104.17
2018-12-27T00:37:19.579Z,97.93
2018-12-27T00:39:48.187Z,116.10
2018-12-27T00:42:16.750Z,122.13
2018-12-27T00:44:45.336Z,115.93
2018-12-27T00:47:13.972Z,134.30
2018-12-27T00:49:42.555Z,129.47
2018-12-27T00:52:11.139Z,123.73
2018-12-27T00:54:39.949Z,123.03
2018-12-27T00:57:08.539Z,114.90
2018-12-27T00:59:37.095Z,114.23
2018-12-27T01:02:05.937Z,114.80
2018-12-27T01:04:34.515Z,119.17
2018-12-27T01:07:03.180Z,110.93
2018-12-27T01:09:31.867Z,117.93
2018-12-27T01:12:00.412Z,109.97
2018-12-27T01:14:28.995Z,104.97
2018-12-27T01:16:57.564Z,124.80
2018-12-27T01:19:26.412Z,101.83
2018-12-27T01:21:54.968Z,111.27
2018-12-27T01:24:23.544Z,105.00
2018-12-27T01:26:52.116Z,100.40
2018-12-27T01:29:20.704Z,109.47
2018-12-27T01:31:50.732Z,104.20
2018-12-27T01:34:19.443Z,103.27
2018-12-27T01:36:48.023Z,102.97
2018-12-27T01:39:16.571Z,104.40
2018-12-27T01:41:45.384Z,95.90
2018-12-27T01:44:13.948Z,96.77
2018-12-27T01:46:42.528Z,94.80
2018-12-27T01:49:11.094Z,95.57
2018-12-27T01:51:39.685Z,94.93
2018-12-27T01:54:08.248Z,87.80
2018-12-27T01:56:36.845Z,91.20
2018-12-27T01:59:05.412Z,98.47
2018-12-27T02:01:33.995Z,96.77
2018-12-27T02:04:02.579Z,83.93
2018-12-27T02:06:31.181Z,83.27
2018-12-27T02:08:59.848Z,92.40
2018-12-27T02:11:28.451Z,78.97
2018-12-27T02:13:57.036Z,84.43
2018-12-27T02:16:25.618Z,93.27
2018-12-27T02:18:54.207Z,87.70
2018-12-27T02:21:22.827Z,92.20
2018-12-27T02:23:51.394Z,83.00
2018-12-27T02:26:19.971Z,83.73
2018-12-27T02:28:48.538Z,83.60
2018-12-27T02:31:17.141Z,83.90
2018-12-27T02:33:45.712Z,86.97
2018-12-27T02:36:14.303Z,92.87
2018-12-27T02:38:42.883Z,93.13
2018-12-27T02:41:11.467Z,103.93
2018-12-27T02:43:40.063Z,86.40
2018-12-27T02:46:08.714Z,86.73
2018-12-27T02:48:37.310Z,89.20
2018-12-27T02:51:05.880Z,98.57
2018-12-27T02:53:34.478Z,92.43
2018-12-27T02:56:03.041Z,91.33
2018-12-27T02:58:31.603Z,88.43
2018-12-27T03:01:00.193Z,86.73
2018-12-27T03:03:28.740Z,94.07
2018-12-27T03:05:57.319Z,94.47
2018-12-27T03:08:25.915Z,90.67
2018-12-27T03:10:54.508Z,95.53
2018-12-27T03:13:23.132Z,98.17
2018-12-27T03:15:51.703Z,99.87
2018-12-27T03:18:20.529Z,88.67
2018-12-27T03:20:49.129Z,88.20
2018-12-27T03:23:17.695Z,83.23
2018-12-27T03:25:46.287Z,83.60
2018-12-27T03:28:14.864Z,82.57
2018-12-27T03:30:43.464Z,97.07
2018-12-27T03:33:12.010Z,88.63
2018-12-27T03:35:40.598Z,95.23
2018-12-27T03:38:09.405Z,92.37
2018-12-27T03:40:37.987Z,85.70
2018-12-27T03:43:06.566Z,94.93
2018-12-27T03:45:35.160Z,96.40
2018-12-27T03:48:03.695Z,91.03
2018-12-27T03:50:32.287Z,95.20
2018-12-27T03:53:00.850Z,96.43
2018-12-27T03:55:29.417Z,96.13
2018-12-27T03:57:58.003Z,87.87
2018-12-27T04:00:26.567Z,80.23
2018-12-27T04:02:55.172Z,88.80
2018-12-27T04:05:23.976Z,93.03
2018-12-27T04:07:52.558Z,86.07
2018-12-27T04:10:21.144Z,95.07
2018-12-27T04:12:49.701Z,85.40
2018-12-27T04:15:18.126Z,85.13
2018-12-27T04:17:46.535Z,93.17
2018-12-27T04:20:14.941Z,90.67
2018-12-27T04:22:43.371Z,87.23
2018-12-27T04:25:12.192Z,98.33
2018-12-27T04:27:40.588Z,95.43
2018-12-27T04:30:09.023Z,86.43
2018-12-27T04:32:38.197Z,106.60
2018-12-27T04:35:06.760Z,86.80
2018-12-27T04:37:35.174Z,93.17
2018-12-27T04:40:04.288Z,95.57
2018-12-27T04:42:33.040Z,111.10
2018-12-27T04:45:01.458Z,116.53
2018-12-27T04:47:29.884Z,97.57
2018-12-27T04:49:58.288Z,108.83
2018-12-27T04:52:26.732Z,108.10
2018-12-27T04:54:55.147Z,109.60
2018-12-27T04:57:23.570Z,124.47
2018-12-27T04:59:52.004Z,120.87
2018-12-27T05:02:20.439Z,117.93
2018-12-27T05:04:48.837Z,120.00
2018-12-27T05:07:17.259Z,121.67
2018-12-27T05:09:45.675Z,113.67
2018-12-27T05:12:14.122Z,113.50
2018-12-27T05:14:42.593Z,119.07
2018-12-27T05:17:11.018Z,106.13
2018-12-27T05:19:39.422Z,109.67
2018-12-27T05:22:07.844Z,120.07
2018-12-27T05:24:36.252Z,129.93
2018-12-27T05:27:04.673Z,114.73
2018-12-27T05:29:33.091Z,131.00
2018-12-27T05:32:01.508Z,127.03
2018-12-27T05:34:29.951Z,103.17
2018-12-27T05:36:58.367Z,111.37
2018-12-27T05:39:26.788Z,129.23
2018-12-27T05:41:55.191Z,129.07
2018-12-27T05:44:23.615Z,107.83
2018-12-27T05:46:52.052Z,121.03
2018-12-27T05:49:20.487Z,120.43
2018-12-27T05:51:49.137Z,107.93
2018-12-27T05:54:17.583Z,140.40
2018-12-27T05:56:45.997Z,113.03
2018-12-27T05:59:14.403Z,123.17
2018-12-27T06:01:42.843Z,126.93
2018-12-27T06:04:11.260Z,121.17
2018-12-27T06:06:39.904Z,139.53
2018-12-27T06:09:08.342Z,111.93
2018-12-27T06:11:36.747Z,111.50
2018-12-27T06:14:05.187Z,120.47
2018-12-27T06:16:33.588Z,101.23
2018-12-27T06:19:02.012Z,119.07
2018-12-27T06:21:30.465Z,124.00
2018-12-27T06:23:58.853Z,112.53
2018-12-27T06:26:27.268Z,107.70
2018-12-27T06:28:55.699Z,125.43
2018-12-27T06:31:24.112Z,121.70
2018-12-27T06:33:52.549Z,99.57
2018-12-27T06:36:20.968Z,114.60
2018-12-27T06:38:49.416Z,117.43
2018-12-27T06:41:17.851Z,106.50
2018-12-27T06:43:46.275Z,106.23
2018-12-27T06:46:14.933Z,107.70
2018-12-27T06:48:43.334Z,96.17
2018-12-27T06:51:11.769Z,106.43
2018-12-27T06:53:40.173Z,109.37
2018-12-27T06:56:08.587Z,92.13
2018-12-27T06:58:37.827Z,87.40
2018-12-27T07:01:06.496Z,93.90
2018-12-27T07:03:34.903Z,94.90
2018-12-27T07:06:03.333Z,97.53
2018-12-27T07:08:31.733Z,83.60
2018-12-27T07:11:00.178Z,86.00
2018-12-27T07:13:28.640Z,90.23
2018-12-27T07:15:57.104Z,88.13
2018-12-27T07:18:25.519Z,82.80
2018-12-27T07:20:53.955Z,86.27
2018-12-27T07:23:22.635Z,77.63
2018-12-27T07:25:51.049Z,88.73
2018-12-27T07:28:19.456Z,83.50
2018-12-27T07:30:47.963Z,88.63
2018-12-27T07:33:16.411Z,87.00
2018-12-27T07:35:44.795Z,83.83
2018-12-27T07:38:13.288Z,83.67
2018-12-27T07:40:41.739Z,78.50
2018-12-27T07:43:10.148Z,87.50
2018-12-27T07:45:38.572Z,76.97
2018-12-27T07:48:07.000Z,81.13
2018-12-27T07:50:35.432Z,77.20
2018-12-27T07:53:03.859Z,78.93
2018-12-27T07:55:32.287Z,72.10
2018-12-27T07:58:00.710Z,85.27
2018-12-27T08:00:29.112Z,85.47
2018-12-27T08:02:57.547Z,88.77
2018-12-27T08:05:26.220Z,79.10
2018-12-27T08:07:54.645Z,79.87
2018-12-27T08:10:23.104Z,82.17
2018-12-27T08:12:51.517Z,88.17
2018-12-27T08:15:19.913Z,86.37
2018-12-27T08:17:48.340Z,89.73
2018-12-27T08:20:16.759Z,90.30
2018-12-27T08:22:45.171Z,94.83
2018-12-27T08:25:13.607Z,93.30
2018-12-27T08:27:42.004Z,92.77
2018-12-27T08:30:10.517Z,91.40
2018-12-27T08:32:38.947Z,96.93
2018-12-27T08:35:11.424Z,100.67
2018-12-27T08:37:37.560Z,102.13
2018-12-27T08:40:06.178Z,108.30
2018-12-27T08:42:34.572Z,105.73
2018-12-27T08:45:03.567Z,113.10
2018-12-27T08:47:31.991Z,108.37
2018-12-27T08:50:00.406Z,120.90
2018-12-27T08:52:28.838Z,118.83
2018-12-27T08:54:57.288Z,114.30
2018-12-27T08:57:25.758Z,123.20
2018-12-27T08:59:54.168Z,129.10
2018-12-27T09:02:23.793Z,135.50
2018-12-27T09:04:52.236Z,132.37
2018-12-27T09:07:20.750Z,143.13
2018-12-27T09:09:49.188Z,149.63
2018-12-27T09:12:17.621Z,158.37
2018-12-27T09:14:46.034Z,141.33
2018-12-27T09:17:14.456Z,180.30
2018-12-27T09:19:42.869Z,145.27
2018-12-27T09:22:11.314Z,164.00
2018-12-27T09:24:39.716Z,164.93
2018-12-27T09:27:08.157Z,157.70
2018-12-27T09:29:36.560Z,155.47
2018-12-27T09:32:04.997Z,143.03
2018-12-27T09:34:33.415Z,167.90
2018-12-27T09:37:01.835Z,154.07
2018-12-27T09:39:30.257Z,153.77
2018-12-27T09:41:58.692Z,165.47
2018-12-27T09:44:27.106Z,139.00
2018-12-27T09:46:55.541Z,144.17
2018-12-27T09:49:24.011Z,148.67
2018-12-27T09:51:52.446Z,147.03
2018-12-27T09:54:20.880Z,186.07
2018-12-27T09:56:49.279Z,176.63
2018-12-27T09:59:19.540Z,154.17
2018-12-27T10:01:48.012Z,140.27
2018-12-27T10:04:16.753Z,153.20
2018-12-27T10:06:45.183Z,157.07
2018-12-27T10:09:13.613Z,167.13
2018-12-27T10:11:42.023Z,155.33
2018-12-27T10:14:10.448Z,166.73
2018-12-27T10:16:38.889Z,161.07
2018-12-27T10:19:07.325Z,157.17
2018-12-27T10:21:35.785Z,152.43
2018-12-27T10:24:04.196Z,171.77
2018-12-27T10:26:32.607Z,161.13
2018-12-27T10:29:01.047Z,167.37
2018-12-27T10:31:29.486Z,158.37
2018-12-27T10:33:57.891Z,149.47
2018-12-27T10:36:26.315Z,149.53
2018-12-27T10:38:57.100Z,141.50
2018-12-27T10:41:25.513Z,146.83
2018-12-27T10:43:53.948Z,159.90
2018-12-27T10:46:22.372Z,185.37
2018-12-27T10:48:50.783Z,174.57
2018-12-27T10:51:19.228Z,179.37
2018-12-27T10:53:47.640Z,158.00
2018-12-27T10:56:16.097Z,170.77
2018-12-27T10:58:44.542Z,166.93
2018-12-27T11:01:13.772Z,176.57
2018-12-27T11:03:42.256Z,152.17
2018-12-27T11:06:10.680Z,165.23
2018-12-27T11:08:39.120Z,142.63
2018-12-27T11:11:07.527Z,153.17
2018-12-27T11:13:35.976Z,173.53
2018-12-27T11:16:04.404Z,153.37
2018-12-27T11:18:32.826Z,162.90
2018-12-27T11:21:01.236Z,163.07
2018-12-27T11:23:29.668Z,173.03
2018-12-27T11:25:58.075Z,165.90
2018-12-27T11:28:26.516Z,160.03
2018-12-27T11:30:58.064Z,163.80
2018-12-27T11:33:26.825Z,176.53
2018-12-27T11:35:55.872Z,194.13
2018-12-27T11:38:24.505Z,175.70
2018-12-27T11:40:53.181Z,163.37
2018-12-27T11:43:21.651Z,146.70
2018-12-27T11:45:50.092Z,178.80
2018-12-27T11:48:18.503Z,164.03
2018-12-27T11:50:46.940Z,166.60
2018-12-27T11:53:15.339Z,156.43
2018-12-27T11:55:44.369Z,182.17
2018-12-27T11:58:12.813Z,155.87
2018-12-27T12:00:41.222Z,164.43
2018-12-27T12:03:09.660Z,159.63
2018-12-27T12:05:38.093Z,163.23
2018-12-27T12:08:06.753Z,190.80
2018-12-27T12:10:35.452Z,175.70
2018-12-27T12:13:03.895Z,161.53
2018-12-27T12:15:32.549Z,160.43
2018-12-27T12:18:01.054Z,166.47
2018-12-27T12:20:29.460Z,164.50
2018-12-27T12:22:57.907Z,156.90
2018-12-27T12:25:26.319Z,178.43
2018-12-27T12:27:54.766Z,161.60
2018-12-27T12:30:23.176Z,152.77
2018-12-27T12:32:51.579Z,180.97
2018-12-27T12:35:20.025Z,194.13
2018-12-27T12:37:48.763Z,195.23
2018-12-27T12:40:17.194Z,172.53
2018-12-27T12:42:45.596Z,197.93
2018-12-27T12:45:14.044Z,169.10
2018-12-27T12:47:42.447Z,189.47
2018-12-27T12:50:11.874Z,179.37
2018-12-27T12:52:40.288Z,176.03
2018-12-27T12:55:08.717Z,176.77
2018-12-27T12:57:37.147Z,174.03
2018-12-27T13:00:08.590Z,171.43
2018-12-27T13:02:37.021Z,174.70
2018-12-27T13:05:06.017Z,185.73
2018-12-27T13:07:35.674Z,158.40
2018-12-27T13:10:04.504Z,164.73
2018-12-27T13:12:32.935Z,168.03
2018-12-27T13:15:01.612Z,160.60
2018-12-27T13:17:30.067Z,158.37
2018-12-27T13:19:58.478Z,153.53
2018-12-27T13:22:27.444Z,150.83
2018-12-27T13:24:55.900Z,128.10
2018-12-27T13:27:24.311Z,150.77
2018-12-27T13:29:53.000Z,151.87
2018-12-27T13:32:21.441Z,152.30
2018-12-27T13:34:49.881Z,123.23
2018-12-27T13:37:18.300Z,141.23
2018-12-27T13:39:46.699Z,133.30
2018-12-27T13:42:15.132Z,147.90
2018-12-27T13:44:44.271Z,143.63
2018-12-27T13:47:12.830Z,134.53
2018-12-27T13:49:41.381Z,141.77
2018-12-27T13:52:09.791Z,145.33
2018-12-27T13:54:38.217Z,146.23
2018-12-27T13:57:06.619Z,142.67
2018-12-27T13:59:35.048Z,146.97
2018-12-27T14:02:04.196Z,147.83
2018-12-27T14:04:33.920Z,151.47
2018-12-27T14:07:02.400Z,138.40
2018-12-27T14:09:31.548Z,137.07
2018-12-27T14:12:00.940Z,142.83
2018-12-27T14:14:29.364Z,153.77
2018-12-27T14:16:57.800Z,144.30
2018-12-27T14:19:26.204Z,160.53
2018-12-27T14:21:54.612Z,149.90
2018-12-27T14:24:23.040Z,143.63
2018-12-27T14:26:51.462Z,141.03
2018-12-27T14:29:19.902Z,144.00
2018-12-27T14:31:48.305Z,144.60
2018-12-27T14:34:16.816Z,133.97
2018-12-27T14:36:45.234Z,136.37
2018-12-27T14:39:13.668Z,143.03
2018-12-27T14:41:42.103Z,130.67
2018-12-27T14:44:10.512Z,143.40
2018-12-27T14:46:38.965Z,142.17
2018-12-27T14:49:07.395Z,136.10
2018-12-27T14:51:35.896Z,145.33
2018-12-27T14:54:04.323Z,144.70
2018-12-27T14:56:32.728Z,136.77
2018-12-27T14:59:02.392Z,128.60
2018-12-27T15:01:32.518Z,143.57
2018-12-27T15:04:01.094Z,135.17
2018-12-27T15:06:29.511Z,137.27
2018-12-27T15:08:57.956Z,142.17
2018-12-27T15:11:27.805Z,142.30
2018-12-27T15:13:56.308Z,151.13
2018-12-27T15:16:25.883Z,151.40
2018-12-27T15:18:54.291Z,150.40
2018-12-27T15:21:22.752Z,134.50
2018-12-27T15:23:51.242Z,149.90
2018-12-27T15:26:19.684Z,142.57
2018-12-27T15:28:48.367Z,146.33
2018-12-27T15:31:16.841Z,145.83
2018-12-27T15:33:46.217Z,147.03
2018-12-27T15:36:14.952Z,153.90
2018-12-27T15:38:44.629Z,153.93
2018-12-27T15:41:13.055Z,165.67
2018-12-27T15:43:41.512Z,150.07
2018-12-27T15:46:09.921Z,174.87
2018-12-27T15:48:38.372Z,155.83
2018-12-27T15:51:06.884Z,165.83
2018-12-27T15:53:35.349Z,164.97
2018-12-27T15:56:04.448Z,148.20
2018-12-27T15:58:32.928Z,143.13
2018-12-27T16:01:03.923Z,155.10
2018-12-27T16:03:36.232Z,147.47
2018-12-27T16:06:06.260Z,166.67
2018-12-27T16:08:34.671Z,164.03
2018-12-27T16:11:04.135Z,156.20
2018-12-27T16:13:32.524Z,166.50
2018-12-27T16:16:00.992Z,166.40
2018-12-27T16:18:29.392Z,161.93
2018-12-27T16:20:57.839Z,182.67
2018-12-27T16:23:26.259Z,155.03
2018-12-27T16:25:54.685Z,167.23
2018-12-27T16:28:23.101Z,173.33
2018-12-27T16:30:51.534Z,181.73
2018-12-27T16:33:19.964Z,167.30
2018-12-27T16:35:48.365Z,174.80
2018-12-27T16:38:17.043Z,221.97
2018-12-27T16:40:45.428Z,175.03
2018-12-27T16:43:13.871Z,163.23
2018-12-27T16:45:42.315Z,165.33
2018-12-27T16:48:10.778Z,153.80
2018-12-27T16:50:40.784Z,169.00
2018-12-27T16:53:09.235Z,185.63
2018-12-27T16:55:38.333Z,167.63
2018-12-27T16:58:06.860Z,150.57
2018-12-27T17:00:35.340Z,182.70
2018-12-27T17:03:07.509Z,225.43
2018-12-27T17:05:35.958Z,188.90
2018-12-27T17:08:04.437Z,184.77
2018-12-27T17:10:32.848Z,180.87
2018-12-27T17:13:01.294Z,200.40
2018-12-27T17:15:29.951Z,175.60
2018-12-27T17:17:58.380Z,179.27
2018-12-27T17:20:26.807Z,215.57
2018-12-27T17:22:55.472Z,211.60
2018-12-27T17:25:23.892Z,218.67
2018-12-27T17:27:52.309Z,192.43
2018-12-27T17:30:20.792Z,176.03
2018-12-27T17:32:49.191Z,223.33
2018-12-27T17:35:17.864Z,224.87
2018-12-27T17:37:46.311Z,176.00
2018-12-27T17:40:14.732Z,201.10
2018-12-27T17:42:43.167Z,192.87
2018-12-27T17:45:11.601Z,186.87
2018-12-27T17:47:40.072Z,183.30
2018-12-27T17:50:08.495Z,192.37
2018-12-27T17:52:36.923Z,196.17
2018-12-27T17:55:05.391Z,208.30
2018-12-27T17:57:33.829Z,237.97
2018-12-27T18:00:02.354Z,205.20
2018-12-27T18:02:30.756Z,197.93
2018-12-27T18:04:59.187Z,218.67
2018-12-27T18:07:30.688Z,189.50
2018-12-27T18:09:57.732Z,202.87
2018-12-27T18:12:26.415Z,232.73
2018-12-27T18:14:59.664Z,232.17
2018-12-27T18:17:28.100Z,206.53
2018-12-27T18:19:56.552Z,201.20
2018-12-27T18:22:26.491Z,216.60
2018-12-27T18:24:55.174Z,195.40
2018-12-27T18:27:25.191Z,214.77
2018-12-27T18:29:53.618Z,189.43
2018-12-27T18:32:23.785Z,205.07
2018-12-27T18:34:52.263Z,227.70
2018-12-27T18:37:20.688Z,221.23
2018-12-27T18:39:49.115Z,202.60
2018-12-27T18:42:17.562Z,207.33
2018-12-27T18:44:45.992Z,202.73
2018-12-27T18:47:14.434Z,227.00
2018-12-27T18:49:42.859Z,212.03
2018-12-27T18:52:11.281Z,226.77
2018-12-27T18:54:39.712Z,178.93
2018-12-27T18:57:08.159Z,237.13
2018-12-27T18:59:36.589Z,208.13
2018-12-27T19:02:05.023Z,192.37
2018-12-27T19:04:33.424Z,194.03
2018-12-27T19:07:01.876Z,210.83
2018-12-27T19:09:30.292Z,211.73
2018-12-27T19:12:34.608Z,195.53
2018-12-27T19:15:03.875Z,232.80
2018-12-27T19:17:34.549Z,243.03
2018-12-27T19:20:02.971Z,253.90
2018-12-27T19:22:34.543Z,232.67
2018-12-27T19:25:02.962Z,225.67
2018-12-27T19:27:31.453Z,229.97
2018-12-27T19:30:00.197Z,234.60
2018-12-27T19:32:28.600Z,209.23
2018-12-27T19:34:57.037Z,230.40
2018-12-27T19:37:25.445Z,229.30
2018-12-27T19:39:53.895Z,252.43
2018-12-27T19:42:22.304Z,217.10
2018-12-27T19:44:50.758Z,249.43
2018-12-27T19:47:19.183Z,232.23
2018-12-27T19:49:47.615Z,242.93
2018-12-27T19:52:16.053Z,228.37
2018-12-27T19:54:44.470Z,229.23
2018-12-27T19:57:12.891Z,255.80
2018-12-27T19:59:41.380Z,254.40
2018-12-27T20:02:09.841Z,257.40
2018-12-27T20:04:38.251Z,269.13
2018-12-27T20:07:06.764Z,216.47
2018-12-27T20:09:35.191Z,247.30
2018-12-27T20:12:03.888Z,241.17
2018-12-27T20:14:33.903Z,250.00
2018-12-27T20:17:02.349Z,220.33
2018-12-27T20:19:30.778Z,251.00
2018-12-27T20:21:59.252Z,274.27
2018-12-27T20:24:27.660Z,223.40
2018-12-27T20:26:56.100Z,266.73
2018-12-27T20:29:24.617Z,269.63
2018-12-27T20:31:53.040Z,246.27
2018-12-27T20:34:21.449Z,235.47
2018-12-27T20:36:49.892Z,231.40
2018-12-27T20:39:18.287Z,246.27
2018-12-27T20:41:46.755Z,214.77
2018-12-27T20:44:15.182Z,237.23
2018-12-27T20:46:43.636Z,240.63
2018-12-27T20:49:12.036Z,246.27
2018-12-27T20:51:40.472Z,238.33
2018-12-27T20:54:08.876Z,255.67
2018-12-27T20:56:37.304Z,236.63
2018-12-27T20:59:05.744Z,258.77
2018-12-27T21:01:34.147Z,266.27
2018-12-27T21:04:02.588Z,245.93
2018-12-27T21:06:31.036Z,259.63
2018-12-27T21:08:59.459Z,240.93
2018-12-27T21:11:27.888Z,268.03
2018-12-27T21:13:56.340Z,260.30
2018-12-27T21:16:24.767Z,234.30
2018-12-27T21:18:53.232Z,235.17
2018-12-27T21:21:21.668Z,254.97
2018-12-27T21:23:50.071Z,253.13
2018-12-27T21:26:20.048Z,233.03
2018-12-27T21:28:48.451Z,244.00
2018-12-27T21:31:16.891Z,242.77
2018-12-27T21:33:45.305Z,226.33
2018-12-27T21:36:14.039Z,256.67
2018-12-27T21:38:42.576Z,254.63
2018-12-27T21:41:11.924Z,236.63
2018-12-27T21:43:40.363Z,253.30
2018-12-27T21:46:08.824Z,229.57
2018-12-27T21:48:37.229Z,261.40
2018-12-27T21:51:05.645Z,267.73
2018-12-27T21:53:34.383Z,263.90
2018-12-27T21:56:02.853Z,237.77
2018-12-27T21:58:31.276Z,261.20
2018-12-27T22:00:59.731Z,273.87
2018-12-27T22:03:28.176Z,242.83
2018-12-27T22:05:56.606Z,268.10
2018-12-27T22:08:28.445Z,238.43
2018-12-27T22:10:55.275Z,244.20
2018-12-27T22:13:24.273Z,244.83
2018-12-27T22:15:53.349Z,229.97
2018-12-27T22:18:22.005Z,221.40
2018-12-27T22:20:50.436Z,236.70
2018-12-27T22:23:18.836Z,251.83
2018-12-27T22:25:47.497Z,233.33
2018-12-27T22:28:15.923Z,253.53
2018-12-27T22:30:44.368Z,242.50
2018-12-27T22:33:12.812Z,260.87
2018-12-27T22:35:41.240Z,270.73
2018-12-27T22:38:09.660Z,252.70
2018-12-27T22:40:38.079Z,253.27
2018-12-27T22:43:06.541Z,258.60
2018-12-27T22:45:34.971Z,257.40
2018-12-27T22:48:03.420Z,260.70
2018-12-27T22:50:31.824Z,278.00
2018-12-27T22:53:00.259Z,257.07
2018-12-27T22:55:28.673Z,262.60
2018-12-27T22:57:57.103Z,258.77
2018-12-27T23:00:27.823Z,258.63
2018-12-27T23:02:56.281Z,272.90
2018-12-27T23:05:24.709Z,247.77
2018-12-27T23:07:53.129Z,259.73
2018-12-27T23:10:21.574Z,273.80
2018-12-27T23:12:50.007Z,296.43
2018-12-27T23:15:18.415Z,258.97
2018-12-27T23:17:47.076Z,270.87
2018-12-27T23:20:15.480Z,274.23
2018-12-27T23:22:45.550Z,307.80
2018-12-27T23:25:14.199Z,291.73
2018-12-27T23:27:42.641Z,266.93
2018-12-27T23:30:11.071Z,267.97
2018-12-27T23:32:39.496Z,301.03
2018-12-27T23:35:09.160Z,264.73
2018-12-27T23:37:37.575Z,267.30
2018-12-27T23:40:06.701Z,269.00
2018-12-27T23:42:35.349Z,283.00
2018-12-27T23:45:04.098Z,282.13
2018-12-27T23:47:32.508Z,269.30
2018-12-27T23:50:01.504Z,246.53
2018-12-27T23:52:29.963Z,267.63
2018-12-27T23:54:58.394Z,278.67
2018-12-27T23:57:26.812Z,288.53
2018-12-27T23:59:55.224Z,306.73
